sensor_id;sensor_type;location;lat;lon;timestamp;P1;durP1;ratioP1;P2;durP2;ratioP2
6426;SDS011;3246;42.664;23.308;2024-03-25T00:00:27;2.30;;;0.83;;
6426;SDS011;3246;42.664;23.308;2024-03-25T00:02:54;0.60;;;0.60;;
6426;SDS011;3246;42.664;23.308;2024-03-25T00:05:21;1.00;;;0.43;;
6426;SDS011;3246;42.664;23.308;2024-03-25T00:07:50;0.40;;;0.40;;
6426;SDS011;3246;42.664;23.308;2024-03-25T00:10:17;0.93;;;0.47;;
6426;SDS011;3246;42.664;23.308;2024-03-25T00:12:45;0.90;;;0.87;;
6426;SDS011;3246;42.664;23.308;2024-03-25T00:15:11;1.07;;;0.33;;
6426;SDS011;3246;42.664;23.308;2024-03-25T00:17:38;2.40;;;0.40;;
6426;SDS011;3246;42.664;23.308;2024-03-25T00:20:04;0.40;;;0.40;;
6426;SDS011;3246;42.664;23.308;2024-03-25T00:22:36;2.73;;;0.73;;
6426;SDS011;3246;42.664;23.308;2024-03-25T00:25:01;0.77;;;0.53;;
6426;SDS011;3246;42.664;23.308;2024-03-25T00:27:28;0.80;;;0.80;;
6426;SDS011;3246;42.664;23.308;2024-03-25T00:29:55;0.90;;;0.90;;
6426;SDS011;3246;42.664;23.308;2024-03-25T00:32:22;0.90;;;0.90;;
6426;SDS011;3246;42.664;23.308;2024-03-25T00:34:48;1.80;;;0.90;;
6426;SDS011;3246;42.664;23.308;2024-03-25T00:37:15;0.40;;;0.40;;
6426;SDS011;3246;42.664;23.308;2024-03-25T00:39:42;0.40;;;0.40;;
6426;SDS011;3246;42.664;23.308;2024-03-25T00:42:09;0.50;;;0.40;;
6426;SDS011;3246;42.664;23.308;2024-03-25T00:44:35;0.20;;;0.20;;
6426;SDS011;3246;42.664;23.308;2024-03-25T00:47:02;0.30;;;0.20;;
6426;SDS011;3246;42.664;23.308;2024-03-25T00:49:27;0.23;;;0.23;;
6426;SDS011;3246;42.664;23.308;2024-03-25T00:51:55;0.33;;;0.30;;
6426;SDS011;3246;42.664;23.308;2024-03-25T00:54:21;0.60;;;0.20;;
6426;SDS011;3246;42.664;23.308;2024-03-25T00:56:50;0.60;;;0.40;;
6426;SDS011;3246;42.664;23.308;2024-03-25T00:59:16;0.30;;;0.30;;
6426;SDS011;3246;42.664;23.308;2024-03-25T01:01:43;0.10;;;0.10;;
6426;SDS011;3246;42.664;23.308;2024-03-25T01:04:09;0.67;;;0.20;;
6426;SDS011;3246;42.664;23.308;2024-03-25T01:06:36;0.10;;;0.10;;
6426;SDS011;3246;42.664;23.308;2024-03-25T01:09:01;0.10;;;0.10;;
6426;SDS011;3246;42.664;23.308;2024-03-25T01:11:29;0.20;;;0.20;;
6426;SDS011;3246;42.664;23.308;2024-03-25T01:13:57;0.20;;;0.20;;
6426;SDS011;3246;42.664;23.308;2024-03-25T01:16:24;0.03;;;0.03;;
6426;SDS011;3246;42.664;23.308;2024-03-25T01:18:49;0.10;;;0.10;;
6426;SDS011;3246;42.664;23.308;2024-03-25T01:21:16;0.30;;;0.23;;
6426;SDS011;3246;42.664;23.308;2024-03-25T01:23:42;0.30;;;0.30;;
6426;SDS011;3246;42.664;23.308;2024-03-25T01:26:09;0.13;;;0.13;;
6426;SDS011;3246;42.664;23.308;2024-03-25T01:28:35;0.10;;;0.10;;
6426;SDS011;3246;42.664;23.308;2024-03-25T01:31:03;0.10;;;0.10;;
6426;SDS011;3246;42.664;23.308;2024-03-25T01:33:29;0.17;;;0.17;;
6426;SDS011;3246;42.664;23.308;2024-03-25T01:35:56;2.13;;;0.40;;
6426;SDS011;3246;42.664;23.308;2024-03-25T01:38:22;0.43;;;0.40;;
6426;SDS011;3246;42.664;23.308;2024-03-25T01:40:49;1.03;;;0.63;;
6426;SDS011;3246;42.664;23.308;2024-03-25T01:43:14;0.57;;;0.50;;
6426;SDS011;3246;42.664;23.308;2024-03-25T01:45:42;0.37;;;0.30;;
6426;SDS011;3246;42.664;23.308;2024-03-25T01:48:09;0.20;;;0.20;;
6426;SDS011;3246;42.664;23.308;2024-03-25T01:50:39;0.50;;;0.50;;
6426;SDS011;3246;42.664;23.308;2024-03-25T01:53:07;0.23;;;0.23;;
6426;SDS011;3246;42.664;23.308;2024-03-25T01:55:34;0.20;;;0.20;;
6426;SDS011;3246;42.664;23.308;2024-03-25T01:58:01;0.20;;;0.20;;
6426;SDS011;3246;42.664;23.308;2024-03-25T02:00:28;0.23;;;0.10;;
6426;SDS011;3246;42.664;23.308;2024-03-25T02:02:54;0.30;;;0.30;;
6426;SDS011;3246;42.664;23.308;2024-03-25T02:05:23;0.43;;;0.43;;
6426;SDS011;3246;42.664;23.308;2024-03-25T02:07:49;0.20;;;0.20;;
6426;SDS011;3246;42.664;23.308;2024-03-25T02:10:17;0.10;;;0.10;;
6426;SDS011;3246;42.664;23.308;2024-03-25T02:12:43;0.10;;;0.00;;
6426;SDS011;3246;42.664;23.308;2024-03-25T02:15:12;0.20;;;0.20;;
6426;SDS011;3246;42.664;23.308;2024-03-25T02:17:38;0.10;;;0.10;;
6426;SDS011;3246;42.664;23.308;2024-03-25T02:20:06;0.27;;;0.20;;
6426;SDS011;3246;42.664;23.308;2024-03-25T02:22:34;0.30;;;0.30;;
6426;SDS011;3246;42.664;23.308;2024-03-25T02:25:03;0.10;;;0.10;;
6426;SDS011;3246;42.664;23.308;2024-03-25T02:27:33;0.10;;;0.10;;
6426;SDS011;3246;42.664;23.308;2024-03-25T02:30:04;0.10;;;0.10;;
6426;SDS011;3246;42.664;23.308;2024-03-25T02:32:31;0.23;;;0.17;;
6426;SDS011;3246;42.664;23.308;2024-03-25T02:34:58;0.40;;;0.20;;
6426;SDS011;3246;42.664;23.308;2024-03-25T02:37:25;0.30;;;0.30;;
6426;SDS011;3246;42.664;23.308;2024-03-25T02:39:52;0.30;;;0.30;;
6426;SDS011;3246;42.664;23.308;2024-03-25T02:42:20;0.20;;;0.20;;
6426;SDS011;3246;42.664;23.308;2024-03-25T02:44:49;0.23;;;0.23;;
6426;SDS011;3246;42.664;23.308;2024-03-25T02:47:15;0.30;;;0.30;;
6426;SDS011;3246;42.664;23.308;2024-03-25T02:49:42;0.30;;;0.30;;
6426;SDS011;3246;42.664;23.308;2024-03-25T02:52:08;0.30;;;0.30;;
6426;SDS011;3246;42.664;23.308;2024-03-25T02:54:35;0.50;;;0.50;;
6426;SDS011;3246;42.664;23.308;2024-03-25T02:57:01;0.40;;;0.40;;
6426;SDS011;3246;42.664;23.308;2024-03-25T02:59:28;0.30;;;0.30;;
6426;SDS011;3246;42.664;23.308;2024-03-25T03:01:56;0.33;;;0.33;;
6426;SDS011;3246;42.664;23.308;2024-03-25T03:04:23;0.60;;;0.50;;
6426;SDS011;3246;42.664;23.308;2024-03-25T03:06:49;0.10;;;0.10;;
6426;SDS011;3246;42.664;23.308;2024-03-25T03:09:16;0.30;;;0.30;;
6426;SDS011;3246;42.664;23.308;2024-03-25T03:11:41;0.60;;;0.60;;
6426;SDS011;3246;42.664;23.308;2024-03-25T03:14:09;0.30;;;0.30;;
6426;SDS011;3246;42.664;23.308;2024-03-25T03:16:35;0.80;;;0.63;;
6426;SDS011;3246;42.664;23.308;2024-03-25T03:19:03;0.57;;;0.57;;
6426;SDS011;3246;42.664;23.308;2024-03-25T03:21:30;0.53;;;0.53;;
6426;SDS011;3246;42.664;23.308;2024-03-25T03:23:56;0.33;;;0.33;;
6426;SDS011;3246;42.664;23.308;2024-03-25T03:26:22;0.60;;;0.60;;
6426;SDS011;3246;42.664;23.308;2024-03-25T03:28:52;1.13;;;1.07;;
6426;SDS011;3246;42.664;23.308;2024-03-25T03:31:18;0.70;;;0.70;;
6426;SDS011;3246;42.664;23.308;2024-03-25T03:33:46;0.40;;;0.40;;
6426;SDS011;3246;42.664;23.308;2024-03-25T03:36:13;0.70;;;0.70;;
6426;SDS011;3246;42.664;23.308;2024-03-25T03:38:40;0.77;;;0.77;;
6426;SDS011;3246;42.664;23.308;2024-03-25T03:41:06;0.50;;;0.50;;
6426;SDS011;3246;42.664;23.308;2024-03-25T03:43:33;0.43;;;0.43;;
6426;SDS011;3246;42.664;23.308;2024-03-25T03:45:59;0.73;;;0.73;;
6426;SDS011;3246;42.664;23.308;2024-03-25T03:48:27;1.00;;;1.00;;
6426;SDS011;3246;42.664;23.308;2024-03-25T03:50:53;0.80;;;0.80;;
6426;SDS011;3246;42.664;23.308;2024-03-25T03:53:21;0.87;;;0.70;;
6426;SDS011;3246;42.664;23.308;2024-03-25T03:55:52;0.83;;;0.83;;
6426;SDS011;3246;42.664;23.308;2024-03-25T03:58:19;0.70;;;0.70;;
6426;SDS011;3246;42.664;23.308;2024-03-25T04:00:46;0.53;;;0.53;;
6426;SDS011;3246;42.664;23.308;2024-03-25T04:03:13;0.97;;;0.90;;
6426;SDS011;3246;42.664;23.308;2024-03-25T04:05:39;1.20;;;1.00;;
6426;SDS011;3246;42.664;23.308;2024-03-25T04:08:06;2.20;;;1.10;;
6426;SDS011;3246;42.664;23.308;2024-03-25T04:10:33;1.13;;;1.13;;
6426;SDS011;3246;42.664;23.308;2024-03-25T04:13:01;1.40;;;1.30;;
6426;SDS011;3246;42.664;23.308;2024-03-25T04:15:26;1.20;;;1.10;;
6426;SDS011;3246;42.664;23.308;2024-03-25T04:17:53;1.50;;;1.40;;
6426;SDS011;3246;42.664;23.308;2024-03-25T04:20:19;2.83;;;1.53;;
6426;SDS011;3246;42.664;23.308;2024-03-25T04:22:46;2.07;;;1.97;;
6426;SDS011;3246;42.664;23.308;2024-03-25T04:25:12;2.00;;;1.80;;
6426;SDS011;3246;42.664;23.308;2024-03-25T04:27:42;1.67;;;1.57;;
6426;SDS011;3246;42.664;23.308;2024-03-25T04:30:08;2.77;;;2.27;;
6426;SDS011;3246;42.664;23.308;2024-03-25T04:32:36;2.57;;;2.40;;
6426;SDS011;3246;42.664;23.308;2024-03-25T04:35:03;3.13;;;2.63;;
6426;SDS011;3246;42.664;23.308;2024-03-25T04:37:31;5.50;;;3.07;;
6426;SDS011;3246;42.664;23.308;2024-03-25T04:39:57;3.37;;;2.87;;
6426;SDS011;3246;42.664;23.308;2024-03-25T04:42:23;4.33;;;3.77;;
6426;SDS011;3246;42.664;23.308;2024-03-25T04:44:50;3.33;;;3.03;;
6426;SDS011;3246;42.664;23.308;2024-03-25T04:47:16;5.33;;;4.13;;
6426;SDS011;3246;42.664;23.308;2024-03-25T04:49:42;5.97;;;3.60;;
6426;SDS011;3246;42.664;23.308;2024-03-25T04:52:08;4.83;;;4.43;;
6426;SDS011;3246;42.664;23.308;2024-03-25T04:54:34;4.83;;;4.30;;
6426;SDS011;3246;42.664;23.308;2024-03-25T04:57:00;6.47;;;4.70;;
6426;SDS011;3246;42.664;23.308;2024-03-25T04:59:26;4.17;;;3.83;;
6426;SDS011;3246;42.664;23.308;2024-03-25T05:01:53;4.77;;;4.30;;
6426;SDS011;3246;42.664;23.308;2024-03-25T05:04:19;5.00;;;4.50;;
6426;SDS011;3246;42.664;23.308;2024-03-25T05:06:45;4.90;;;4.47;;
6426;SDS011;3246;42.664;23.308;2024-03-25T05:09:11;6.67;;;4.33;;
6426;SDS011;3246;42.664;23.308;2024-03-25T05:11:37;7.20;;;5.10;;
6426;SDS011;3246;42.664;23.308;2024-03-25T05:14:03;6.30;;;5.33;;
6426;SDS011;3246;42.664;23.308;2024-03-25T05:16:29;5.70;;;5.20;;
6426;SDS011;3246;42.664;23.308;2024-03-25T05:18:56;5.20;;;4.70;;
6426;SDS011;3246;42.664;23.308;2024-03-25T05:21:22;5.40;;;4.90;;
6426;SDS011;3246;42.664;23.308;2024-03-25T05:23:47;7.53;;;6.00;;
6426;SDS011;3246;42.664;23.308;2024-03-25T05:26:13;5.70;;;5.10;;
6426;SDS011;3246;42.664;23.308;2024-03-25T05:28:39;6.67;;;5.07;;
6426;SDS011;3246;42.664;23.308;2024-03-25T05:31:05;6.50;;;5.67;;
6426;SDS011;3246;42.664;23.308;2024-03-25T05:33:31;7.87;;;6.33;;
6426;SDS011;3246;42.664;23.308;2024-03-25T05:35:59;7.10;;;6.03;;
6426;SDS011;3246;42.664;23.308;2024-03-25T05:38:25;7.43;;;6.70;;
6426;SDS011;3246;42.664;23.308;2024-03-25T05:40:51;6.43;;;5.73;;
6426;SDS011;3246;42.664;23.308;2024-03-25T05:43:16;5.60;;;5.10;;
6426;SDS011;3246;42.664;23.308;2024-03-25T05:45:49;7.40;;;6.13;;
6426;SDS011;3246;42.664;23.308;2024-03-25T05:48:15;7.27;;;5.87;;
6426;SDS011;3246;42.664;23.308;2024-03-25T05:50:41;7.53;;;6.83;;
6426;SDS011;3246;42.664;23.308;2024-03-25T05:53:08;7.47;;;6.77;;
6426;SDS011;3246;42.664;23.308;2024-03-25T05:55:34;9.07;;;6.87;;
6426;SDS011;3246;42.664;23.308;2024-03-25T05:58:00;7.10;;;6.50;;
6426;SDS011;3246;42.664;23.308;2024-03-25T06:00:26;9.23;;;7.33;;
6426;SDS011;3246;42.664;23.308;2024-03-25T06:02:52;9.57;;;7.10;;
6426;SDS011;3246;42.664;23.308;2024-03-25T06:05:18;9.20;;;6.93;;
6426;SDS011;3246;42.664;23.308;2024-03-25T06:07:44;8.57;;;7.17;;
6426;SDS011;3246;42.664;23.308;2024-03-25T06:10:12;8.47;;;6.90;;
6426;SDS011;3246;42.664;23.308;2024-03-25T06:12:37;8.30;;;7.30;;
6426;SDS011;3246;42.664;23.308;2024-03-25T06:15:04;8.47;;;7.53;;
6426;SDS011;3246;42.664;23.308;2024-03-25T06:17:30;7.73;;;6.67;;
6426;SDS011;3246;42.664;23.308;2024-03-25T06:19:56;7.97;;;6.43;;
6426;SDS011;3246;42.664;23.308;2024-03-25T06:22:22;8.17;;;6.90;;
6426;SDS011;3246;42.664;23.308;2024-03-25T06:24:47;9.50;;;7.07;;
6426;SDS011;3246;42.664;23.308;2024-03-25T06:27:15;12.13;;;7.30;;
6426;SDS011;3246;42.664;23.308;2024-03-25T06:29:41;9.47;;;7.00;;
6426;SDS011;3246;42.664;23.308;2024-03-25T06:32:07;9.20;;;7.60;;
6426;SDS011;3246;42.664;23.308;2024-03-25T06:34:53;9.93;;;8.03;;
6426;SDS011;3246;42.664;23.308;2024-03-25T06:37:19;9.57;;;8.57;;
6426;SDS011;3246;42.664;23.308;2024-03-25T06:39:45;8.97;;;8.17;;
6426;SDS011;3246;42.664;23.308;2024-03-25T06:42:11;8.77;;;7.37;;
6426;SDS011;3246;42.664;23.308;2024-03-25T06:44:38;8.33;;;7.23;;
6426;SDS011;3246;42.664;23.308;2024-03-25T06:47:04;7.20;;;6.50;;
6426;SDS011;3246;42.664;23.308;2024-03-25T06:49:30;6.20;;;5.70;;
6426;SDS011;3246;42.664;23.308;2024-03-25T06:51:55;8.30;;;6.67;;
6426;SDS011;3246;42.664;23.308;2024-03-25T06:54:21;7.77;;;7.17;;
6426;SDS011;3246;42.664;23.308;2024-03-25T06:56:47;9.57;;;7.20;;
6426;SDS011;3246;42.664;23.308;2024-03-25T06:59:13;7.73;;;6.73;;
6426;SDS011;3246;42.664;23.308;2024-03-25T07:01:40;8.47;;;6.77;;
6426;SDS011;3246;42.664;23.308;2024-03-25T07:04:06;9.63;;;8.10;;
6426;SDS011;3246;42.664;23.308;2024-03-25T07:06:32;8.93;;;6.60;;
6426;SDS011;3246;42.664;23.308;2024-03-25T07:08:58;9.37;;;7.00;;
6426;SDS011;3246;42.664;23.308;2024-03-25T07:11:23;8.83;;;7.83;;
6426;SDS011;3246;42.664;23.308;2024-03-25T07:13:49;8.93;;;6.93;;
6426;SDS011;3246;42.664;23.308;2024-03-25T07:16:15;6.73;;;6.13;;
6426;SDS011;3246;42.664;23.308;2024-03-25T07:18:43;7.77;;;6.93;;
6426;SDS011;3246;42.664;23.308;2024-03-25T07:21:09;8.57;;;7.67;;
6426;SDS011;3246;42.664;23.308;2024-03-25T07:23:35;8.43;;;7.63;;
6426;SDS011;3246;42.664;23.308;2024-03-25T07:26:00;10.47;;;7.97;;
6426;SDS011;3246;42.664;23.308;2024-03-25T07:28:26;8.30;;;6.63;;
6426;SDS011;3246;42.664;23.308;2024-03-25T07:30:52;15.37;;;6.50;;
6426;SDS011;3246;42.664;23.308;2024-03-25T07:33:18;7.03;;;6.43;;
6426;SDS011;3246;42.664;23.308;2024-03-25T07:35:45;7.50;;;6.73;;
6426;SDS011;3246;42.664;23.308;2024-03-25T07:38:11;6.13;;;5.33;;
6426;SDS011;3246;42.664;23.308;2024-03-25T07:40:37;7.63;;;6.83;;
6426;SDS011;3246;42.664;23.308;2024-03-25T07:43:03;6.50;;;5.90;;
6426;SDS011;3246;42.664;23.308;2024-03-25T07:45:29;8.77;;;6.80;;
6426;SDS011;3246;42.664;23.308;2024-03-25T07:47:55;6.70;;;6.00;;
6426;SDS011;3246;42.664;23.308;2024-03-25T07:50:21;8.10;;;6.73;;
6426;SDS011;3246;42.664;23.308;2024-03-25T07:52:48;6.93;;;6.23;;
6426;SDS011;3246;42.664;23.308;2024-03-25T07:55:14;8.77;;;7.13;;
6426;SDS011;3246;42.664;23.308;2024-03-25T07:57:40;7.20;;;6.50;;
6426;SDS011;3246;42.664;23.308;2024-03-25T08:00:06;6.90;;;6.23;;
6426;SDS011;3246;42.664;23.308;2024-03-25T08:02:33;7.03;;;6.33;;
6426;SDS011;3246;42.664;23.308;2024-03-25T08:04:59;7.13;;;6.43;;
6426;SDS011;3246;42.664;23.308;2024-03-25T08:07:24;7.33;;;6.07;;
6426;SDS011;3246;42.664;23.308;2024-03-25T08:09:52;6.73;;;6.13;;
6426;SDS011;3246;42.664;23.308;2024-03-25T08:12:17;6.30;;;5.70;;
6426;SDS011;3246;42.664;23.308;2024-03-25T08:14:43;6.67;;;6.07;;
6426;SDS011;3246;42.664;23.308;2024-03-25T08:17:09;6.87;;;5.57;;
6426;SDS011;3246;42.664;23.308;2024-03-25T08:19:35;7.17;;;6.57;;
6426;SDS011;3246;42.664;23.308;2024-03-25T08:22:00;6.23;;;5.67;;
6426;SDS011;3246;42.664;23.308;2024-03-25T08:24:26;6.43;;;5.90;;
6426;SDS011;3246;42.664;23.308;2024-03-25T08:26:54;7.10;;;5.97;;
6426;SDS011;3246;42.664;23.308;2024-03-25T08:29:19;5.80;;;5.33;;
6426;SDS011;3246;42.664;23.308;2024-03-25T08:31:45;6.30;;;5.70;;
6426;SDS011;3246;42.664;23.308;2024-03-25T08:34:11;7.47;;;6.63;;
6426;SDS011;3246;42.664;23.308;2024-03-25T08:36:37;7.30;;;6.67;;
6426;SDS011;3246;42.664;23.308;2024-03-25T08:39:03;6.33;;;5.73;;
6426;SDS011;3246;42.664;23.308;2024-03-25T08:41:28;8.40;;;6.23;;
6426;SDS011;3246;42.664;23.308;2024-03-25T08:43:56;6.30;;;5.73;;
6426;SDS011;3246;42.664;23.308;2024-03-25T08:46:21;5.60;;;5.10;;
6426;SDS011;3246;42.664;23.308;2024-03-25T08:48:47;7.30;;;5.67;;
6426;SDS011;3246;42.664;23.308;2024-03-25T08:51:13;4.93;;;4.53;;
6426;SDS011;3246;42.664;23.308;2024-03-25T08:53:39;6.73;;;6.00;;
6426;SDS011;3246;42.664;23.308;2024-03-25T08:56:05;7.37;;;6.73;;
6426;SDS011;3246;42.664;23.308;2024-03-25T08:58:31;5.37;;;4.97;;
6426;SDS011;3246;42.664;23.308;2024-03-25T09:00:58;5.73;;;5.07;;
6426;SDS011;3246;42.664;23.308;2024-03-25T09:03:24;5.73;;;5.23;;
6426;SDS011;3246;42.664;23.308;2024-03-25T09:05:50;6.53;;;5.93;;
6426;SDS011;3246;42.664;23.308;2024-03-25T09:08:16;6.20;;;5.70;;
6426;SDS011;3246;42.664;23.308;2024-03-25T09:10:43;5.97;;;5.40;;
6426;SDS011;3246;42.664;23.308;2024-03-25T09:13:27;7.37;;;5.67;;
6426;SDS011;3246;42.664;23.308;2024-03-25T09:15:53;10.83;;;7.37;;
6426;SDS011;3246;42.664;23.308;2024-03-25T09:18:20;7.40;;;6.40;;
6426;SDS011;3246;42.664;23.308;2024-03-25T09:20:46;6.87;;;6.13;;
6426;SDS011;3246;42.664;23.308;2024-03-25T09:23:11;5.70;;;5.20;;
6426;SDS011;3246;42.664;23.308;2024-03-25T09:25:37;5.73;;;4.80;;
6426;SDS011;3246;42.664;23.308;2024-03-25T09:28:03;5.40;;;4.90;;
6426;SDS011;3246;42.664;23.308;2024-03-25T09:30:29;5.97;;;5.47;;
6426;SDS011;3246;42.664;23.308;2024-03-25T09:32:55;5.83;;;5.23;;
6426;SDS011;3246;42.664;23.308;2024-03-25T09:35:22;7.13;;;6.40;;
6426;SDS011;3246;42.664;23.308;2024-03-25T09:37:48;6.07;;;5.57;;
6426;SDS011;3246;42.664;23.308;2024-03-25T09:40:14;5.97;;;5.53;;
6426;SDS011;3246;42.664;23.308;2024-03-25T09:42:42;5.63;;;5.23;;
6426;SDS011;3246;42.664;23.308;2024-03-25T09:45:12;5.07;;;4.67;;
6426;SDS011;3246;42.664;23.308;2024-03-25T09:47:41;7.70;;;6.03;;
6426;SDS011;3246;42.664;23.308;2024-03-25T09:50:11;5.70;;;5.20;;
6426;SDS011;3246;42.664;23.308;2024-03-25T09:52:39;5.77;;;5.27;;
6426;SDS011;3246;42.664;23.308;2024-03-25T09:55:05;5.87;;;5.27;;
6426;SDS011;3246;42.664;23.308;2024-03-25T09:57:32;4.33;;;3.93;;
6426;SDS011;3246;42.664;23.308;2024-03-25T09:59:59;5.93;;;5.33;;
6426;SDS011;3246;42.664;23.308;2024-03-25T10:02:26;8.40;;;5.57;;
6426;SDS011;3246;42.664;23.308;2024-03-25T10:04:54;9.37;;;5.40;;
6426;SDS011;3246;42.664;23.308;2024-03-25T10:07:24;4.80;;;4.40;;
6426;SDS011;3246;42.664;23.308;2024-03-25T10:09:52;6.47;;;4.97;;
6426;SDS011;3246;42.664;23.308;2024-03-25T10:12:18;8.30;;;5.60;;
6426;SDS011;3246;42.664;23.308;2024-03-25T10:14:43;4.73;;;4.30;;
6426;SDS011;3246;42.664;23.308;2024-03-25T10:17:09;5.67;;;4.63;;
6426;SDS011;3246;42.664;23.308;2024-03-25T10:19:35;5.27;;;4.47;;
6426;SDS011;3246;42.664;23.308;2024-03-25T10:22:02;4.60;;;4.20;;
6426;SDS011;3246;42.664;23.308;2024-03-25T10:24:36;4.83;;;3.97;;
6426;SDS011;3246;42.664;23.308;2024-03-25T10:27:04;4.80;;;4.40;;
6426;SDS011;3246;42.664;23.308;2024-03-25T10:29:30;5.07;;;4.20;;
6426;SDS011;3246;42.664;23.308;2024-03-25T10:31:59;4.63;;;4.23;;
6426;SDS011;3246;42.664;23.308;2024-03-25T10:34:25;3.77;;;3.47;;
6426;SDS011;3246;42.664;23.308;2024-03-25T10:36:51;6.23;;;3.83;;
6426;SDS011;3246;42.664;23.308;2024-03-25T10:39:25;3.40;;;3.10;;
6426;SDS011;3246;42.664;23.308;2024-03-25T10:41:54;4.73;;;3.07;;
6426;SDS011;3246;42.664;23.308;2024-03-25T10:44:23;4.13;;;3.83;;
6426;SDS011;3246;42.664;23.308;2024-03-25T10:46:50;4.07;;;3.77;;
6426;SDS011;3246;42.664;23.308;2024-03-25T10:49:21;3.40;;;3.20;;
6426;SDS011;3246;42.664;23.308;2024-03-25T10:51:58;3.37;;;3.07;;
6426;SDS011;3246;42.664;23.308;2024-03-25T10:54:26;3.47;;;3.17;;
6426;SDS011;3246;42.664;23.308;2024-03-25T10:56:55;3.60;;;3.30;;
6426;SDS011;3246;42.664;23.308;2024-03-25T10:59:25;3.53;;;3.23;;
6426;SDS011;3246;42.664;23.308;2024-03-25T11:01:52;3.10;;;2.80;;
6426;SDS011;3246;42.664;23.308;2024-03-25T11:04:18;3.30;;;3.10;;
6426;SDS011;3246;42.664;23.308;2024-03-25T11:06:45;3.67;;;3.37;;
6426;SDS011;3246;42.664;23.308;2024-03-25T11:09:10;3.50;;;3.10;;
6426;SDS011;3246;42.664;23.308;2024-03-25T11:11:47;2.80;;;2.63;;
6426;SDS011;3246;42.664;23.308;2024-03-25T11:14:15;3.30;;;3.10;;
6426;SDS011;3246;42.664;23.308;2024-03-25T11:16:42;3.47;;;3.27;;
6426;SDS011;3246;42.664;23.308;2024-03-25T11:19:10;3.63;;;3.10;;
6426;SDS011;3246;42.664;23.308;2024-03-25T11:21:36;2.70;;;2.50;;
6426;SDS011;3246;42.664;23.308;2024-03-25T11:24:05;3.10;;;2.90;;
6426;SDS011;3246;42.664;23.308;2024-03-25T11:26:32;2.90;;;2.70;;
6426;SDS011;3246;42.664;23.308;2024-03-25T11:28:58;3.00;;;2.80;;
6426;SDS011;3246;42.664;23.308;2024-03-25T11:31:25;3.40;;;3.20;;
6426;SDS011;3246;42.664;23.308;2024-03-25T11:33:53;2.97;;;2.77;;
6426;SDS011;3246;42.664;23.308;2024-03-25T11:36:20;3.40;;;2.47;;
6426;SDS011;3246;42.664;23.308;2024-03-25T11:38:46;3.00;;;2.70;;
6426;SDS011;3246;42.664;23.308;2024-03-25T11:41:22;3.70;;;3.40;;
6426;SDS011;3246;42.664;23.308;2024-03-25T11:43:48;3.10;;;2.90;;
6426;SDS011;3246;42.664;23.308;2024-03-25T11:46:17;3.53;;;2.70;;
6426;SDS011;3246;42.664;23.308;2024-03-25T11:48:44;3.57;;;3.30;;
6426;SDS011;3246;42.664;23.308;2024-03-25T11:51:12;4.00;;;3.70;;
6426;SDS011;3246;42.664;23.308;2024-03-25T11:53:38;2.77;;;2.57;;
6426;SDS011;3246;42.664;23.308;2024-03-25T11:56:04;2.10;;;2.00;;
6426;SDS011;3246;42.664;23.308;2024-03-25T11:58:31;2.77;;;2.57;;
6426;SDS011;3246;42.664;23.308;2024-03-25T12:00:56;2.40;;;2.30;;
6426;SDS011;3246;42.664;23.308;2024-03-25T12:03:22;2.57;;;2.37;;
6426;SDS011;3246;42.664;23.308;2024-03-25T12:05:48;2.97;;;2.63;;
6426;SDS011;3246;42.664;23.308;2024-03-25T12:08:15;3.17;;;2.97;;
6426;SDS011;3246;42.664;23.308;2024-03-25T12:10:41;4.07;;;2.67;;
6426;SDS011;3246;42.664;23.308;2024-03-25T12:13:25;2.43;;;2.27;;
6426;SDS011;3246;42.664;23.308;2024-03-25T12:15:51;2.63;;;2.43;;
6426;SDS011;3246;42.664;23.308;2024-03-25T12:18:17;2.70;;;2.50;;
6426;SDS011;3246;42.664;23.308;2024-03-25T12:20:44;3.17;;;2.83;;
6426;SDS011;3246;42.664;23.308;2024-03-25T12:23:10;3.00;;;2.77;;
6426;SDS011;3246;42.664;23.308;2024-03-25T12:25:38;3.10;;;2.83;;
6426;SDS011;3246;42.664;23.308;2024-03-25T12:28:07;2.60;;;2.40;;
6426;SDS011;3246;42.664;23.308;2024-03-25T12:30:34;3.03;;;2.83;;
6426;SDS011;3246;42.664;23.308;2024-03-25T12:33:16;2.00;;;1.90;;
6426;SDS011;3246;42.664;23.308;2024-03-25T12:35:44;2.70;;;2.50;;
6426;SDS011;3246;42.664;23.308;2024-03-25T12:38:20;2.97;;;2.77;;
6426;SDS011;3246;42.664;23.308;2024-03-25T12:40:48;2.50;;;2.30;;
6426;SDS011;3246;42.664;23.308;2024-03-25T12:43:14;3.30;;;2.63;;
6426;SDS011;3246;42.664;23.308;2024-03-25T12:45:40;3.10;;;2.67;;
6426;SDS011;3246;42.664;23.308;2024-03-25T12:48:07;2.80;;;2.47;;
6426;SDS011;3246;42.664;23.308;2024-03-25T12:50:32;3.20;;;2.87;;
6426;SDS011;3246;42.664;23.308;2024-03-25T12:52:58;2.50;;;2.30;;
6426;SDS011;3246;42.664;23.308;2024-03-25T12:55:24;2.20;;;2.10;;
6426;SDS011;3246;42.664;23.308;2024-03-25T12:57:51;2.40;;;2.30;;
6426;SDS011;3246;42.664;23.308;2024-03-25T13:00:17;4.70;;;2.20;;
6426;SDS011;3246;42.664;23.308;2024-03-25T13:02:43;2.43;;;2.23;;
6426;SDS011;3246;42.664;23.308;2024-03-25T13:05:09;2.10;;;2.00;;
6426;SDS011;3246;42.664;23.308;2024-03-25T13:07:35;2.57;;;2.37;;
6426;SDS011;3246;42.664;23.308;2024-03-25T13:10:01;2.90;;;2.70;;
6426;SDS011;3246;42.664;23.308;2024-03-25T13:12:27;3.20;;;3.00;;
6426;SDS011;3246;42.664;23.308;2024-03-25T13:14:55;3.77;;;2.90;;
6426;SDS011;3246;42.664;23.308;2024-03-25T13:17:21;5.23;;;3.17;;
6426;SDS011;3246;42.664;23.308;2024-03-25T13:19:46;3.17;;;2.87;;
6426;SDS011;3246;42.664;23.308;2024-03-25T13:22:12;3.40;;;3.10;;
6426;SDS011;3246;42.664;23.308;2024-03-25T13:24:38;8.00;;;3.33;;
6426;SDS011;3246;42.664;23.308;2024-03-25T13:27:04;2.43;;;2.23;;
6426;SDS011;3246;42.664;23.308;2024-03-25T13:29:30;2.47;;;2.27;;
6426;SDS011;3246;42.664;23.308;2024-03-25T13:31:57;2.70;;;2.50;;
6426;SDS011;3246;42.664;23.308;2024-03-25T13:34:23;2.53;;;2.33;;
6426;SDS011;3246;42.664;23.308;2024-03-25T13:36:49;2.87;;;2.57;;
6426;SDS011;3246;42.664;23.308;2024-03-25T13:39:15;2.80;;;2.57;;
6426;SDS011;3246;42.664;23.308;2024-03-25T13:41:41;3.60;;;2.63;;
6426;SDS011;3246;42.664;23.308;2024-03-25T13:44:06;2.73;;;2.03;;
6426;SDS011;3246;42.664;23.308;2024-03-25T13:46:32;2.30;;;2.10;;
6426;SDS011;3246;42.664;23.308;2024-03-25T13:48:59;2.03;;;1.80;;
6426;SDS011;3246;42.664;23.308;2024-03-25T13:51:25;1.80;;;1.70;;
6426;SDS011;3246;42.664;23.308;2024-03-25T13:53:51;1.50;;;1.40;;
6426;SDS011;3246;42.664;23.308;2024-03-25T13:56:17;1.63;;;1.53;;
6426;SDS011;3246;42.664;23.308;2024-03-25T13:58:43;1.90;;;1.63;;
6426;SDS011;3246;42.664;23.308;2024-03-25T14:01:09;1.03;;;0.97;;
6426;SDS011;3246;42.664;23.308;2024-03-25T14:03:34;2.80;;;1.80;;
6426;SDS011;3246;42.664;23.308;2024-03-25T14:06:02;0.97;;;0.97;;
6426;SDS011;3246;42.664;23.308;2024-03-25T14:08:28;0.97;;;0.97;;
6426;SDS011;3246;42.664;23.308;2024-03-25T14:10:57;1.07;;;1.07;;
6426;SDS011;3246;42.664;23.308;2024-03-25T14:13:24;1.20;;;1.17;;
6426;SDS011;3246;42.664;23.308;2024-03-25T14:15:50;1.87;;;1.20;;
6426;SDS011;3246;42.664;23.308;2024-03-25T14:18:16;1.10;;;1.00;;
6426;SDS011;3246;42.664;23.308;2024-03-25T14:20:41;1.40;;;1.30;;
6426;SDS011;3246;42.664;23.308;2024-03-25T14:23:09;1.17;;;1.10;;
6426;SDS011;3246;42.664;23.308;2024-03-25T14:25:35;1.27;;;1.00;;
6426;SDS011;3246;42.664;23.308;2024-03-25T14:28:01;0.90;;;0.90;;
6426;SDS011;3246;42.664;23.308;2024-03-25T14:30:27;0.90;;;0.90;;
6426;SDS011;3246;42.664;23.308;2024-03-25T14:32:53;1.27;;;1.00;;
6426;SDS011;3246;42.664;23.308;2024-03-25T14:35:19;1.47;;;1.00;;
6426;SDS011;3246;42.664;23.308;2024-03-25T14:37:44;1.23;;;0.93;;
6426;SDS011;3246;42.664;23.308;2024-03-25T14:40:12;1.40;;;1.30;;
6426;SDS011;3246;42.664;23.308;2024-03-25T14:42:38;1.40;;;1.13;;
6426;SDS011;3246;42.664;23.308;2024-03-25T14:45:04;1.57;;;1.23;;
6426;SDS011;3246;42.664;23.308;2024-03-25T14:47:30;1.70;;;1.60;;
6426;SDS011;3246;42.664;23.308;2024-03-25T14:49:56;1.90;;;1.80;;
6426;SDS011;3246;42.664;23.308;2024-03-25T14:52:22;2.10;;;1.95;;
6426;SDS011;3246;42.664;23.308;2024-03-25T14:54:48;1.70;;;1.60;;
6426;SDS011;3246;42.664;23.308;2024-03-25T14:57:15;1.50;;;1.40;;